sensor_id;sensor_type;location;lat;lon;timestamp;P1;durP1;ratioP1;P2;durP2;ratioP2
7503;SDS011;3793;48.136;11.536;2024-03-06T00:02:28;17.50;;;13.20;;
7503;SDS011;3793;48.136;11.536;2024-03-06T00:04:55;18.57;;;13.10;;
7503;SDS011;3793;48.136;11.536;2024-03-06T00:07:22;16.30;;;12.70;;
7503;SDS011;3793;48.136;11.536;2024-03-06T00:09:50;18.87;;;13.23;;
7503;SDS011;3793;48.136;11.536;2024-03-06T00:12:18;18.30;;;13.50;;
7503;SDS011;3793;48.136;11.536;2024-03-06T00:14:45;19.13;;;13.77;;
7503;SDS011;3793;48.136;11.536;2024-03-06T00:17:14;17.37;;;13.33;;
7503;SDS011;3793;48.136;11.536;2024-03-06T00:19:40;16.50;;;13.17;;
7503;SDS011;3793;48.136;11.536;2024-03-06T00:22:08;17.40;;;12.93;;
7503;SDS011;3793;48.136;11.536;2024-03-06T00:24:38;18.20;;;13.73;;
7503;SDS011;3793;48.136;11.536;2024-03-06T00:27:10;17.67;;;13.43;;
7503;SDS011;3793;48.136;11.536;2024-03-06T00:29:38;17.67;;;13.33;;
7503;SDS011;3793;48.136;11.536;2024-03-06T00:32:05;17.90;;;12.60;;
7503;SDS011;3793;48.136;11.536;2024-03-06T00:34:34;17.20;;;14.20;;
7503;SDS011;3793;48.136;11.536;2024-03-06T00:37:01;18.20;;;14.17;;
7503;SDS011;3793;48.136;11.536;2024-03-06T00:39:28;21.30;;;15.03;;
7503;SDS011;3793;48.136;11.536;2024-03-06T00:41:58;18.17;;;14.30;;
7503;SDS011;3793;48.136;11.536;2024-03-06T00:44:25;21.80;;;14.07;;
7503;SDS011;3793;48.136;11.536;2024-03-06T00:46:52;17.07;;;12.60;;
7503;SDS011;3793;48.136;11.536;2024-03-06T00:49:21;17.23;;;13.73;;
7503;SDS011;3793;48.136;11.536;2024-03-06T00:51:52;15.83;;;12.53;;
7503;SDS011;3793;48.136;11.536;2024-03-06T00:54:22;18.80;;;13.43;;
7503;SDS011;3793;48.136;11.536;2024-03-06T00:56:49;19.10;;;14.60;;
7503;SDS011;3793;48.136;11.536;2024-03-06T00:59:21;20.57;;;14.53;;
7503;SDS011;3793;48.136;11.536;2024-03-06T01:01:48;18.13;;;13.47;;
7503;SDS011;3793;48.136;11.536;2024-03-06T01:04:17;20.50;;;14.33;;
7503;SDS011;3793;48.136;11.536;2024-03-06T01:06:44;19.77;;;14.67;;
7503;SDS011;3793;48.136;11.536;2024-03-06T01:09:13;18.07;;;14.77;;
7503;SDS011;3793;48.136;11.536;2024-03-06T01:11:41;18.43;;;13.67;;
7503;SDS011;3793;48.136;11.536;2024-03-06T01:14:08;16.97;;;13.80;;
7503;SDS011;3793;48.136;11.536;2024-03-06T01:16:35;18.40;;;14.13;;
7503;SDS011;3793;48.136;11.536;2024-03-06T01:19:05;18.13;;;13.63;;
7503;SDS011;3793;48.136;11.536;2024-03-06T01:21:32;18.67;;;13.80;;
7503;SDS011;3793;48.136;11.536;2024-03-06T01:24:02;17.37;;;13.20;;
7503;SDS011;3793;48.136;11.536;2024-03-06T01:26:36;18.17;;;13.73;;
7503;SDS011;3793;48.136;11.536;2024-03-06T01:29:08;17.53;;;13.57;;
7503;SDS011;3793;48.136;11.536;2024-03-06T01:31:37;17.03;;;14.00;;
7503;SDS011;3793;48.136;11.536;2024-03-06T01:34:06;16.77;;;13.13;;
7503;SDS011;3793;48.136;11.536;2024-03-06T01:36:33;17.40;;;13.90;;
7503;SDS011;3793;48.136;11.536;2024-03-06T01:39:03;16.63;;;13.67;;
7503;SDS011;3793;48.136;11.536;2024-03-06T01:44:18;18.37;;;13.83;;
7503;SDS011;3793;48.136;11.536;2024-03-06T01:46:46;17.40;;;13.93;;
7503;SDS011;3793;48.136;11.536;2024-03-06T01:49:15;18.50;;;13.40;;
7503;SDS011;3793;48.136;11.536;2024-03-06T01:51:48;15.83;;;12.67;;
7503;SDS011;3793;48.136;11.536;2024-03-06T01:54:15;20.17;;;13.37;;
7503;SDS011;3793;48.136;11.536;2024-03-06T01:56:43;25.07;;;15.97;;
7503;SDS011;3793;48.136;11.536;2024-03-06T01:59:11;20.43;;;15.77;;
7503;SDS011;3793;48.136;11.536;2024-03-06T02:01:41;21.07;;;15.03;;
7503;SDS011;3793;48.136;11.536;2024-03-06T02:04:08;21.87;;;16.13;;
7503;SDS011;3793;48.136;11.536;2024-03-06T02:06:36;22.93;;;15.73;;
7503;SDS011;3793;48.136;11.536;2024-03-06T02:09:05;22.10;;;15.63;;
7503;SDS011;3793;48.136;11.536;2024-03-06T02:11:31;21.27;;;15.80;;
7503;SDS011;3793;48.136;11.536;2024-03-06T02:13:58;25.87;;;17.17;;
7503;SDS011;3793;48.136;11.536;2024-03-06T02:16:24;25.07;;;17.00;;
7503;SDS011;3793;48.136;11.536;2024-03-06T02:18:52;24.27;;;16.63;;
7503;SDS011;3793;48.136;11.536;2024-03-06T02:21:21;23.67;;;16.53;;
7503;SDS011;3793;48.136;11.536;2024-03-06T02:23:48;26.70;;;18.20;;
7503;SDS011;3793;48.136;11.536;2024-03-06T02:26:16;32.83;;;18.80;;
7503;SDS011;3793;48.136;11.536;2024-03-06T02:28:46;30.00;;;19.53;;
7503;SDS011;3793;48.136;11.536;2024-03-06T02:31:13;30.63;;;19.67;;
7503;SDS011;3793;48.136;11.536;2024-03-06T02:33:39;33.43;;;20.27;;
7503;SDS011;3793;48.136;11.536;2024-03-06T02:36:06;32.37;;;20.33;;
7503;SDS011;3793;48.136;11.536;2024-03-06T02:38:34;36.87;;;21.77;;
7503;SDS011;3793;48.136;11.536;2024-03-06T02:41:01;37.10;;;21.47;;
7503;SDS011;3793;48.136;11.536;2024-03-06T02:43:28;37.13;;;21.63;;
7503;SDS011;3793;48.136;11.536;2024-03-06T02:45:55;34.07;;;20.27;;
7503;SDS011;3793;48.136;11.536;2024-03-06T02:48:21;38.07;;;21.17;;
7503;SDS011;3793;48.136;11.536;2024-03-06T02:50:48;38.17;;;23.90;;
7503;SDS011;3793;48.136;11.536;2024-03-06T02:53:14;36.00;;;19.80;;
7503;SDS011;3793;48.136;11.536;2024-03-06T02:55:43;35.87;;;21.17;;
7503;SDS011;3793;48.136;11.536;2024-03-06T02:58:09;35.67;;;22.30;;
7503;SDS011;3793;48.136;11.536;2024-03-06T03:00:36;37.07;;;21.10;;
7503;SDS011;3793;48.136;11.536;2024-03-06T03:03:03;37.67;;;23.70;;
7503;SDS011;3793;48.136;11.536;2024-03-06T03:05:29;31.43;;;19.07;;
7503;SDS011;3793;48.136;11.536;2024-03-06T03:07:56;43.17;;;22.47;;
7503;SDS011;3793;48.136;11.536;2024-03-06T03:10:23;37.50;;;20.37;;
7503;SDS011;3793;48.136;11.536;2024-03-06T03:12:52;24.97;;;15.03;;
7503;SDS011;3793;48.136;11.536;2024-03-06T03:15:19;18.37;;;10.10;;
7503;SDS011;3793;48.136;11.536;2024-03-06T03:17:46;9.93;;;6.90;;
7503;SDS011;3793;48.136;11.536;2024-03-06T03:20:13;7.07;;;5.40;;
7503;SDS011;3793;48.136;11.536;2024-03-06T03:22:42;7.83;;;5.17;;
7503;SDS011;3793;48.136;11.536;2024-03-06T03:25:09;7.40;;;5.57;;
7503;SDS011;3793;48.136;11.536;2024-03-06T03:27:36;5.00;;;3.97;;
7503;SDS011;3793;48.136;11.536;2024-03-06T03:30:05;5.33;;;4.53;;
7503;SDS011;3793;48.136;11.536;2024-03-06T03:32:34;4.30;;;3.50;;
7503;SDS011;3793;48.136;11.536;2024-03-06T03:35:00;4.17;;;3.47;;
7503;SDS011;3793;48.136;11.536;2024-03-06T03:37:27;4.60;;;3.40;;
7503;SDS011;3793;48.136;11.536;2024-03-06T03:39:54;3.40;;;2.77;;
7503;SDS011;3793;48.136;11.536;2024-03-06T03:42:21;4.07;;;2.83;;
7503;SDS011;3793;48.136;11.536;2024-03-06T03:44:48;3.00;;;2.63;;
7503;SDS011;3793;48.136;11.536;2024-03-06T03:47:16;3.63;;;2.93;;
7503;SDS011;3793;48.136;11.536;2024-03-06T03:49:42;2.90;;;2.33;;
7503;SDS011;3793;48.136;11.536;2024-03-06T03:52:09;5.83;;;3.37;;
7503;SDS011;3793;48.136;11.536;2024-03-06T03:54:36;3.37;;;2.83;;
7503;SDS011;3793;48.136;11.536;2024-03-06T03:57:03;3.30;;;2.90;;
7503;SDS011;3793;48.136;11.536;2024-03-06T03:59:31;3.23;;;2.80;;
7503;SDS011;3793;48.136;11.536;2024-03-06T04:01:58;4.67;;;3.00;;
7503;SDS011;3793;48.136;11.536;2024-03-06T04:04:26;4.03;;;3.17;;
7503;SDS011;3793;48.136;11.536;2024-03-06T04:06:54;3.27;;;2.83;;
7503;SDS011;3793;48.136;11.536;2024-03-06T04:09:20;4.83;;;3.63;;
7503;SDS011;3793;48.136;11.536;2024-03-06T04:11:47;5.80;;;4.27;;
7503;SDS011;3793;48.136;11.536;2024-03-06T04:14:14;7.10;;;4.10;;
7503;SDS011;3793;48.136;11.536;2024-03-06T04:16:40;4.00;;;3.50;;
7503;SDS011;3793;48.136;11.536;2024-03-06T04:19:07;4.60;;;3.50;;
7503;SDS011;3793;48.136;11.536;2024-03-06T04:21:35;5.50;;;3.60;;
7503;SDS011;3793;48.136;11.536;2024-03-06T04:24:06;4.43;;;3.67;;
7503;SDS011;3793;48.136;11.536;2024-03-06T04:26:33;3.87;;;3.47;;
7503;SDS011;3793;48.136;11.536;2024-03-06T04:29:00;5.67;;;3.10;;
7503;SDS011;3793;48.136;11.536;2024-03-06T04:31:27;4.07;;;3.40;;
7503;SDS011;3793;48.136;11.536;2024-03-06T04:33:54;4.50;;;3.50;;
7503;SDS011;3793;48.136;11.536;2024-03-06T04:36:21;4.27;;;3.57;;
7503;SDS011;3793;48.136;11.536;2024-03-06T04:38:49;5.17;;;3.77;;
7503;SDS011;3793;48.136;11.536;2024-03-06T04:41:18;5.90;;;4.13;;
7503;SDS011;3793;48.136;11.536;2024-03-06T04:43:44;4.20;;;3.73;;
7503;SDS011;3793;48.136;11.536;2024-03-06T04:46:12;4.23;;;3.80;;
7503;SDS011;3793;48.136;11.536;2024-03-06T04:48:39;4.77;;;3.73;;
7503;SDS011;3793;48.136;11.536;2024-03-06T04:51:06;5.60;;;3.97;;
7503;SDS011;3793;48.136;11.536;2024-03-06T04:53:35;5.03;;;4.07;;
7503;SDS011;3793;48.136;11.536;2024-03-06T04:56:03;5.03;;;3.97;;
7503;SDS011;3793;48.136;11.536;2024-03-06T04:58:30;4.43;;;3.90;;
7503;SDS011;3793;48.136;11.536;2024-03-06T05:00:56;3.60;;;3.27;;
7503;SDS011;3793;48.136;11.536;2024-03-06T05:03:23;5.77;;;4.07;;
7503;SDS011;3793;48.136;11.536;2024-03-06T05:05:50;4.07;;;3.53;;
7503;SDS011;3793;48.136;11.536;2024-03-06T05:08:16;4.70;;;3.70;;
7503;SDS011;3793;48.136;11.536;2024-03-06T05:10:43;4.27;;;3.47;;
7503;SDS011;3793;48.136;11.536;2024-03-06T05:13:11;5.03;;;3.77;;
7503;SDS011;3793;48.136;11.536;2024-03-06T05:15:38;5.00;;;4.17;;
7503;SDS011;3793;48.136;11.536;2024-03-06T05:18:05;4.60;;;3.83;;
7503;SDS011;3793;48.136;11.536;2024-03-06T05:20:33;4.50;;;3.83;;
7503;SDS011;3793;48.136;11.536;2024-03-06T05:23:00;4.47;;;4.03;;
7503;SDS011;3793;48.136;11.536;2024-03-06T05:25:26;6.53;;;4.37;;
7503;SDS011;3793;48.136;11.536;2024-03-06T05:27:53;5.20;;;4.23;;
7503;SDS011;3793;48.136;11.536;2024-03-06T05:30:21;6.27;;;4.43;;
7503;SDS011;3793;48.136;11.536;2024-03-06T05:32:48;4.87;;;3.93;;
7503;SDS011;3793;48.136;11.536;2024-03-06T05:35:14;5.47;;;4.27;;
7503;SDS011;3793;48.136;11.536;2024-03-06T05:37:41;4.50;;;4.10;;
7503;SDS011;3793;48.136;11.536;2024-03-06T05:40:09;5.00;;;3.77;;
7503;SDS011;3793;48.136;11.536;2024-03-06T05:42:35;4.73;;;3.50;;
7503;SDS011;3793;48.136;11.536;2024-03-06T05:45:02;3.73;;;3.37;;
7503;SDS011;3793;48.136;11.536;2024-03-06T05:47:32;5.20;;;4.00;;
7503;SDS011;3793;48.136;11.536;2024-03-06T05:49:59;7.33;;;3.83;;
7503;SDS011;3793;48.136;11.536;2024-03-06T05:52:26;5.73;;;4.13;;
7503;SDS011;3793;48.136;11.536;2024-03-06T05:54:54;4.67;;;3.90;;
7503;SDS011;3793;48.136;11.536;2024-03-06T05:57:20;6.43;;;4.20;;
7503;SDS011;3793;48.136;11.536;2024-03-06T05:59:47;6.80;;;4.17;;
7503;SDS011;3793;48.136;11.536;2024-03-06T06:02:14;3.90;;;3.47;;
7503;SDS011;3793;48.136;11.536;2024-03-06T06:04:42;4.83;;;3.73;;
7503;SDS011;3793;48.136;11.536;2024-03-06T06:07:09;4.70;;;3.47;;
7503;SDS011;3793;48.136;11.536;2024-03-06T06:09:36;6.13;;;4.03;;
7503;SDS011;3793;48.136;11.536;2024-03-06T06:12:03;4.60;;;3.67;;
7503;SDS011;3793;48.136;11.536;2024-03-06T06:14:29;5.73;;;3.80;;
7503;SDS011;3793;48.136;11.536;2024-03-06T06:16:56;5.03;;;3.90;;
7503;SDS011;3793;48.136;11.536;2024-03-06T06:19:22;7.80;;;3.90;;
7503;SDS011;3793;48.136;11.536;2024-03-06T06:21:53;7.37;;;4.40;;
7503;SDS011;3793;48.136;11.536;2024-03-06T06:24:20;6.23;;;3.73;;
7503;SDS011;3793;48.136;11.536;2024-03-06T06:26:47;5.47;;;4.20;;
7503;SDS011;3793;48.136;11.536;2024-03-06T06:29:13;5.50;;;4.33;;
7503;SDS011;3793;48.136;11.536;2024-03-06T06:31:40;6.20;;;4.17;;
7503;SDS011;3793;48.136;11.536;2024-03-06T06:34:07;7.30;;;4.17;;
7503;SDS011;3793;48.136;11.536;2024-03-06T06:36:33;4.97;;;4.13;;
7503;SDS011;3793;48.136;11.536;2024-03-06T06:39:03;5.30;;;4.20;;
7503;SDS011;3793;48.136;11.536;2024-03-06T06:41:31;4.47;;;3.97;;
7503;SDS011;3793;48.136;11.536;2024-03-06T06:43:58;6.83;;;4.50;;
7503;SDS011;3793;48.136;11.536;2024-03-06T06:46:24;5.63;;;4.57;;
7503;SDS011;3793;48.136;11.536;2024-03-06T06:48:51;5.50;;;4.53;;
7503;SDS011;3793;48.136;11.536;2024-03-06T06:51:18;4.83;;;3.90;;
7503;SDS011;3793;48.136;11.536;2024-03-06T06:53:46;5.13;;;4.30;;
7503;SDS011;3793;48.136;11.536;2024-03-06T06:56:14;4.47;;;3.80;;
7503;SDS011;3793;48.136;11.536;2024-03-06T06:58:40;5.07;;;4.40;;
7503;SDS011;3793;48.136;11.536;2024-03-06T07:01:08;4.60;;;3.83;;
7503;SDS011;3793;48.136;11.536;2024-03-06T07:03:35;5.77;;;4.27;;
7503;SDS011;3793;48.136;11.536;2024-03-06T07:06:02;5.53;;;4.53;;
7503;SDS011;3793;48.136;11.536;2024-03-06T07:08:29;6.47;;;4.20;;
7503;SDS011;3793;48.136;11.536;2024-03-06T07:10:56;5.73;;;4.40;;
7503;SDS011;3793;48.136;11.536;2024-03-06T07:13:24;5.40;;;4.30;;
7503;SDS011;3793;48.136;11.536;2024-03-06T07:15:51;6.20;;;4.57;;
7503;SDS011;3793;48.136;11.536;2024-03-06T07:18:17;6.10;;;4.70;;
7503;SDS011;3793;48.136;11.536;2024-03-06T07:20:44;6.03;;;4.80;;
7503;SDS011;3793;48.136;11.536;2024-03-06T07:23:12;7.03;;;4.37;;
7503;SDS011;3793;48.136;11.536;2024-03-06T07:25:39;5.77;;;4.63;;
7503;SDS011;3793;48.136;11.536;2024-03-06T07:28:05;5.57;;;4.33;;
7503;SDS011;3793;48.136;11.536;2024-03-06T07:30:33;5.00;;;4.13;;
7503;SDS011;3793;48.136;11.536;2024-03-06T07:33:00;4.87;;;4.37;;
7503;SDS011;3793;48.136;11.536;2024-03-06T07:35:27;5.30;;;4.00;;
7503;SDS011;3793;48.136;11.536;2024-03-06T07:37:53;7.90;;;4.37;;
7503;SDS011;3793;48.136;11.536;2024-03-06T07:40:20;4.30;;;3.90;;
7503;SDS011;3793;48.136;11.536;2024-03-06T07:42:47;5.73;;;4.03;;
7503;SDS011;3793;48.136;11.536;2024-03-06T07:45:13;5.77;;;3.47;;
7503;SDS011;3793;48.136;11.536;2024-03-06T07:47:41;5.93;;;4.20;;
7503;SDS011;3793;48.136;11.536;2024-03-06T07:50:08;5.83;;;4.30;;
7503;SDS011;3793;48.136;11.536;2024-03-06T07:52:36;4.50;;;3.80;;
7503;SDS011;3793;48.136;11.536;2024-03-06T07:55:02;5.77;;;4.00;;
7503;SDS011;3793;48.136;11.536;2024-03-06T07:57:30;4.77;;;3.50;;
7503;SDS011;3793;48.136;11.536;2024-03-06T07:59:57;7.07;;;3.77;;
7503;SDS011;3793;48.136;11.536;2024-03-06T08:02:23;4.10;;;3.70;;
7503;SDS011;3793;48.136;11.536;2024-03-06T08:04:51;6.37;;;3.73;;
7503;SDS011;3793;48.136;11.536;2024-03-06T08:07:18;4.50;;;3.47;;
7503;SDS011;3793;48.136;11.536;2024-03-06T08:09:45;4.27;;;3.80;;
7503;SDS011;3793;48.136;11.536;2024-03-06T08:12:54;4.43;;;4.03;;
7503;SDS011;3793;48.136;11.536;2024-03-06T08:16:18;4.93;;;3.40;;
7503;SDS011;3793;48.136;11.536;2024-03-06T08:19:02;4.83;;;3.77;;
7503;SDS011;3793;48.136;11.536;2024-03-06T08:34:05;3.77;;;3.20;;
7503;SDS011;3793;48.136;11.536;2024-03-06T08:36:51;3.97;;;3.57;;
7503;SDS011;3793;48.136;11.536;2024-03-06T08:42:28;4.57;;;4.10;;
7503;SDS011;3793;48.136;11.536;2024-03-06T08:45:16;5.00;;;3.57;;
7503;SDS011;3793;48.136;11.536;2024-03-06T08:48:05;4.53;;;3.70;;
7503;SDS011;3793;48.136;11.536;2024-03-06T08:56:47;3.47;;;3.10;;
7503;SDS011;3793;48.136;11.536;2024-03-06T08:59:24;5.57;;;4.17;;
7503;SDS011;3793;48.136;11.536;2024-03-06T09:08:34;3.97;;;3.57;;
7503;SDS011;3793;48.136;11.536;2024-03-06T09:14:43;4.17;;;2.97;;
7503;SDS011;3793;48.136;11.536;2024-03-06T09:18:12;5.23;;;3.57;;
7503;SDS011;3793;48.136;11.536;2024-03-06T09:41:55;3.00;;;2.73;;
7503;SDS011;3793;48.136;11.536;2024-03-06T09:44:47;2.63;;;2.37;;
7503;SDS011;3793;48.136;11.536;2024-03-06T09:47:27;5.83;;;3.13;;
7503;SDS011;3793;48.136;11.536;2024-03-06T09:50:11;4.10;;;2.90;;
7503;SDS011;3793;48.136;11.536;2024-03-06T10:26:21;4.40;;;3.10;;
7503;SDS011;3793;48.136;11.536;2024-03-06T10:35:06;4.47;;;3.20;;
7503;SDS011;3793;48.136;11.536;2024-03-06T10:40:46;3.60;;;2.93;;
7503;SDS011;3793;48.136;11.536;2024-03-06T10:43:39;3.50;;;3.00;;
7503;SDS011;3793;48.136;11.536;2024-03-06T10:46:19;6.23;;;3.83;;
7503;SDS011;3793;48.136;11.536;2024-03-06T10:49:00;5.93;;;3.40;;
7503;SDS011;3793;48.136;11.536;2024-03-06T10:51:51;6.17;;;3.47;;
7503;SDS011;3793;48.136;11.536;2024-03-06T10:57:12;4.93;;;3.80;;
7503;SDS011;3793;48.136;11.536;2024-03-06T10:59:58;4.27;;;3.30;;
7503;SDS011;3793;48.136;11.536;2024-03-06T11:02:54;4.93;;;3.53;;
7503;SDS011;3793;48.136;11.536;2024-03-06T11:05:24;5.13;;;3.17;;
7503;SDS011;3793;48.136;11.536;2024-03-06T11:08:06;4.70;;;3.93;;
7503;SDS011;3793;48.136;11.536;2024-03-06T11:10:45;5.10;;;3.67;;
7503;SDS011;3793;48.136;11.536;2024-03-06T11:13:23;4.93;;;3.43;;
7503;SDS011;3793;48.136;11.536;2024-03-06T11:16:04;6.90;;;4.40;;
7503;SDS011;3793;48.136;11.536;2024-03-06T11:18:48;5.23;;;3.77;;
7503;SDS011;3793;48.136;11.536;2024-03-06T11:21:29;5.50;;;4.13;;
7503;SDS011;3793;48.136;11.536;2024-03-06T11:26:48;4.57;;;4.07;;
7503;SDS011;3793;48.136;11.536;2024-03-06T11:29:20;4.60;;;4.10;;
7503;SDS011;3793;48.136;11.536;2024-03-06T11:32:07;7.00;;;4.27;;
7503;SDS011;3793;48.136;11.536;2024-03-06T11:34:37;6.40;;;4.23;;
7503;SDS011;3793;48.136;11.536;2024-03-06T11:37:07;5.27;;;4.23;;
7503;SDS011;3793;48.136;11.536;2024-03-06T11:39:40;7.60;;;5.17;;
7503;SDS011;3793;48.136;11.536;2024-03-06T11:42:18;6.47;;;4.60;;
7503;SDS011;3793;48.136;11.536;2024-03-06T11:45:11;8.33;;;5.33;;
7503;SDS011;3793;48.136;11.536;2024-03-06T11:48:03;8.83;;;5.30;;
7503;SDS011;3793;48.136;11.536;2024-03-06T11:50:30;7.30;;;5.23;;
7503;SDS011;3793;48.136;11.536;2024-03-06T11:53:07;8.20;;;5.73;;
7503;SDS011;3793;48.136;11.536;2024-03-06T11:55:42;7.63;;;6.07;;
7503;SDS011;3793;48.136;11.536;2024-03-06T11:58:12;9.40;;;6.53;;
7503;SDS011;3793;48.136;11.536;2024-03-06T12:00:39;8.13;;;5.83;;
7503;SDS011;3793;48.136;11.536;2024-03-06T12:03:10;6.50;;;4.90;;
7503;SDS011;3793;48.136;11.536;2024-03-06T12:05:46;7.57;;;5.33;;
7503;SDS011;3793;48.136;11.536;2024-03-06T12:08:23;10.37;;;5.60;;
7503;SDS011;3793;48.136;11.536;2024-03-06T12:10:50;8.50;;;5.83;;
7503;SDS011;3793;48.136;11.536;2024-03-06T12:13:20;10.43;;;6.17;;
7503;SDS011;3793;48.136;11.536;2024-03-06T12:15:47;7.50;;;6.10;;
7503;SDS011;3793;48.136;11.536;2024-03-06T12:18:17;10.80;;;6.60;;
7503;SDS011;3793;48.136;11.536;2024-03-06T12:20:44;7.97;;;6.47;;
7503;SDS011;3793;48.136;11.536;2024-03-06T12:23:18;11.30;;;7.43;;
7503;SDS011;3793;48.136;11.536;2024-03-06T12:25:48;10.63;;;7.10;;
7503;SDS011;3793;48.136;11.536;2024-03-06T12:28:17;11.17;;;7.77;;
7503;SDS011;3793;48.136;11.536;2024-03-06T12:31:03;11.43;;;7.53;;
7503;SDS011;3793;48.136;11.536;2024-03-06T12:33:39;10.90;;;7.50;;
7503;SDS011;3793;48.136;11.536;2024-03-06T12:36:27;9.70;;;7.70;;
7503;SDS011;3793;48.136;11.536;2024-03-06T12:42:04;10.83;;;7.37;;
7503;SDS011;3793;48.136;11.536;2024-03-06T12:44:49;12.47;;;7.83;;
7503;SDS011;3793;48.136;11.536;2024-03-06T12:47:55;10.37;;;7.57;;
7503;SDS011;3793;48.136;11.536;2024-03-06T12:53:56;10.10;;;7.20;;
7503;SDS011;3793;48.136;11.536;2024-03-06T12:56:26;10.17;;;6.00;;
7503;SDS011;3793;48.136;11.536;2024-03-06T12:59:05;8.17;;;6.33;;
7503;SDS011;3793;48.136;11.536;2024-03-06T13:01:35;8.43;;;6.07;;
7503;SDS011;3793;48.136;11.536;2024-03-06T13:04:19;8.93;;;5.70;;
7503;SDS011;3793;48.136;11.536;2024-03-06T13:06:48;8.50;;;5.90;;
7503;SDS011;3793;48.136;11.536;2024-03-06T13:09:22;8.00;;;5.80;;
7503;SDS011;3793;48.136;11.536;2024-03-06T13:11:49;10.17;;;6.20;;
7503;SDS011;3793;48.136;11.536;2024-03-06T13:14:16;8.60;;;6.00;;
7503;SDS011;3793;48.136;11.536;2024-03-06T13:16:43;10.37;;;5.87;;
7503;SDS011;3793;48.136;11.536;2024-03-06T13:19:10;7.73;;;5.07;;
7503;SDS011;3793;48.136;11.536;2024-03-06T13:21:37;6.93;;;5.00;;
7503;SDS011;3793;48.136;11.536;2024-03-06T13:24:05;6.07;;;4.80;;
7503;SDS011;3793;48.136;11.536;2024-03-06T13:26:36;6.23;;;5.00;;
7503;SDS011;3793;48.136;11.536;2024-03-06T13:29:05;6.97;;;4.77;;
7503;SDS011;3793;48.136;11.536;2024-03-06T13:31:32;6.40;;;4.63;;
7503;SDS011;3793;48.136;11.536;2024-03-06T13:33:59;7.23;;;5.10;;
7503;SDS011;3793;48.136;11.536;2024-03-06T13:36:26;7.17;;;4.87;;
7503;SDS011;3793;48.136;11.536;2024-03-06T13:38:53;6.60;;;4.87;;
7503;SDS011;3793;48.136;11.536;2024-03-06T13:41:20;7.77;;;4.87;;
7503;SDS011;3793;48.136;11.536;2024-03-06T13:43:49;6.90;;;4.90;;
7503;SDS011;3793;48.136;11.536;2024-03-06T13:46:16;5.90;;;4.63;;
7503;SDS011;3793;48.136;11.536;2024-03-06T13:48:42;6.33;;;4.73;;
7503;SDS011;3793;48.136;11.536;2024-03-06T13:51:09;6.83;;;5.07;;
7503;SDS011;3793;48.136;11.536;2024-03-06T13:53:36;5.17;;;4.57;;
7503;SDS011;3793;48.136;11.536;2024-03-06T13:56:03;5.53;;;4.27;;
7503;SDS011;3793;48.136;11.536;2024-03-06T13:58:31;4.90;;;4.00;;
7503;SDS011;3793;48.136;11.536;2024-03-06T14:01:00;6.00;;;3.80;;
7503;SDS011;3793;48.136;11.536;2024-03-06T14:03:28;4.33;;;3.60;;
7503;SDS011;3793;48.136;11.536;2024-03-06T14:05:58;5.27;;;3.70;;
7503;SDS011;3793;48.136;11.536;2024-03-06T14:08:26;3.93;;;3.40;;
7503;SDS011;3793;48.136;11.536;2024-03-06T14:10:53;5.47;;;3.77;;
7503;SDS011;3793;48.136;11.536;2024-03-06T14:13:20;6.53;;;4.30;;
7503;SDS011;3793;48.136;11.536;2024-03-06T14:15:46;5.27;;;4.27;;
7503;SDS011;3793;48.136;11.536;2024-03-06T14:18:16;5.23;;;3.70;;
7503;SDS011;3793;48.136;11.536;2024-03-06T14:20:43;5.50;;;3.90;;
7503;SDS011;3793;48.136;11.536;2024-03-06T14:23:09;3.40;;;3.00;;
7503;SDS011;3793;48.136;11.536;2024-03-06T14:25:37;4.57;;;3.90;;
7503;SDS011;3793;48.136;11.536;2024-03-06T14:28:04;5.40;;;3.70;;
7503;SDS011;3793;48.136;11.536;2024-03-06T14:30:31;5.93;;;3.57;;
7503;SDS011;3793;48.136;11.536;2024-03-06T14:32:58;5.67;;;3.77;;
7503;SDS011;3793;48.136;11.536;2024-03-06T14:35:29;4.50;;;3.83;;
7503;SDS011;3793;48.136;11.536;2024-03-06T14:37:55;4.87;;;3.80;;
7503;SDS011;3793;48.136;11.536;2024-03-06T14:40:22;3.83;;;3.30;;
7503;SDS011;3793;48.136;11.536;2024-03-06T14:42:49;4.67;;;3.67;;
7503;SDS011;3793;48.136;11.536;2024-03-06T14:45:16;4.40;;;4.00;;
7503;SDS011;3793;48.136;11.536;2024-03-06T14:47:42;5.23;;;3.80;;
7503;SDS011;3793;48.136;11.536;2024-03-06T14:50:09;4.23;;;3.50;;
7503;SDS011;3793;48.136;11.536;2024-03-06T14:52:37;4.87;;;4.17;;
7503;SDS011;3793;48.136;11.536;2024-03-06T14:55:04;5.03;;;4.10;;
7503;SDS011;3793;48.136;11.536;2024-03-06T14:57:33;5.40;;;3.60;;
7503;SDS011;3793;48.136;11.536;2024-03-06T15:00:00;5.60;;;3.83;;
7503;SDS011;3793;48.136;11.536;2024-03-06T15:02:31;5.67;;;3.53;;
7503;SDS011;3793;48.136;11.536;2024-03-06T15:04:58;4.40;;;3.87;;
7503;SDS011;3793;48.136;11.536;2024-03-06T15:07:24;4.07;;;3.67;;
7503;SDS011;3793;48.136;11.536;2024-03-06T15:09:52;3.77;;;3.37;;
7503;SDS011;3793;48.136;11.536;2024-03-06T15:12:19;4.07;;;3.67;;
7503;SDS011;3793;48.136;11.536;2024-03-06T15:14:46;4.90;;;3.80;;
7503;SDS011;3793;48.136;11.536;2024-03-06T15:17:13;4.50;;;3.73;;
7503;SDS011;3793;48.136;11.536;2024-03-06T15:19:40;5.17;;;3.40;;
7503;SDS011;3793;48.136;11.536;2024-03-06T15:22:07;5.10;;;3.60;;
7503;SDS011;3793;48.136;11.536;2024-03-06T15:24:34;5.63;;;4.10;;
7503;SDS011;3793;48.136;11.536;2024-03-06T15:27:02;3.70;;;3.30;;
7503;SDS011;3793;48.136;11.536;2024-03-06T15:29:29;4.73;;;3.50;;
7503;SDS011;3793;48.136;11.536;2024-03-06T15:31:56;5.70;;;3.57;;
7503;SDS011;3793;48.136;11.536;2024-03-06T15:34:26;4.27;;;3.87;;
7503;SDS011;3793;48.136;11.536;2024-03-06T15:36:53;5.07;;;3.67;;
7503;SDS011;3793;48.136;11.536;2024-03-06T15:39:24;4.77;;;3.67;;
7503;SDS011;3793;48.136;11.536;2024-03-06T15:41:55;4.37;;;3.70;;
7503;SDS011;3793;48.136;11.536;2024-03-06T15:44:27;4.27;;;3.60;;
7503;SDS011;3793;48.136;11.536;2024-03-06T15:46:56;4.03;;;3.67;;
7503;SDS011;3793;48.136;11.536;2024-03-06T15:49:26;4.13;;;3.40;;
7503;SDS011;3793;48.136;11.536;2024-03-06T15:51:54;3.73;;;3.37;;
7503;SDS011;3793;48.136;11.536;2024-03-06T15:54:27;3.73;;;3.20;;
7503;SDS011;3793;48.136;11.536;2024-03-06T15:56:54;4.77;;;3.77;;
7503;SDS011;3793;48.136;11.536;2024-03-06T15:59:22;6.63;;;3.57;;
7503;SDS011;3793;48.136;11.536;2024-03-06T16:01:55;5.40;;;3.40;;
7503;SDS011;3793;48.136;11.536;2024-03-06T16:04:22;5.77;;;3.90;;
7503;SDS011;3793;48.136;11.536;2024-03-06T16:06:51;3.73;;;3.33;;
7503;SDS011;3793;48.136;11.536;2024-03-06T16:09:19;6.10;;;3.80;;
7503;SDS011;3793;48.136;11.536;2024-03-06T16:11:46;5.63;;;4.17;;
7503;SDS011;3793;48.136;11.536;2024-03-06T16:14:13;4.33;;;3.57;;
7503;SDS011;3793;48.136;11.536;2024-03-06T16:16:39;5.10;;;3.70;;
7503;SDS011;3793;48.136;11.536;2024-03-06T16:19:08;4.30;;;3.57;;
7503;SDS011;3793;48.136;11.536;2024-03-06T16:21:35;4.13;;;3.57;;
7503;SDS011;3793;48.136;11.536;2024-03-06T16:24:02;4.80;;;3.80;;
7503;SDS011;3793;48.136;11.536;2024-03-06T16:26:29;3.60;;;3.13;;
7503;SDS011;3793;48.136;11.536;2024-03-06T16:28:56;4.43;;;3.30;;
7503;SDS011;3793;48.136;11.536;2024-03-06T16:31:23;7.20;;;4.00;;
7503;SDS011;3793;48.136;11.536;2024-03-06T16:33:50;5.10;;;3.83;;
7503;SDS011;3793;48.136;11.536;2024-03-06T16:36:18;4.30;;;3.43;;
7503;SDS011;3793;48.136;11.536;2024-03-06T16:38:45;5.33;;;3.90;;
7503;SDS011;3793;48.136;11.536;2024-03-06T16:41:12;4.80;;;3.90;;
7503;SDS011;3793;48.136;11.536;2024-03-06T16:43:38;4.53;;;3.30;;
7503;SDS011;3793;48.136;11.536;2024-03-06T16:46:05;4.53;;;3.60;;
7503;SDS011;3793;48.136;11.536;2024-03-06T16:48:32;4.53;;;4.00;;
7503;SDS011;3793;48.136;11.536;2024-03-06T16:50:59;5.53;;;4.40;;
7503;SDS011;3793;48.136;11.536;2024-03-06T16:53:27;6.37;;;5.00;;
7503;SDS011;3793;48.136;11.536;2024-03-06T16:55:56;8.97;;;5.20;;
7503;SDS011;3793;48.136;11.536;2024-03-06T16:58:23;6.07;;;4.03;;
7503;SDS011;3793;48.136;11.536;2024-03-06T17:00:50;6.77;;;3.63;;
7503;SDS011;3793;48.136;11.536;2024-03-06T17:03:17;5.27;;;3.80;;